Terminal Aerodrome Forecast
Issued by NWS

Home | Current Version | Previous Version | Text Only | Print | Product List | Glossary On
Versions: 1 2 3 4 5 6 7 8 9 10 11 12 13 14 15 16 17
000
FTUS46 KMTR 260528
TAFSTS
TAF
KSTS 260528Z 2606/2706 23004KT P6SM SCT020 BKN070
     FM261100 VRB03KT P6SM VCSH FEW012 SCT015 OVC040
     FM261500 26007KT 6SM -RA BR SCT010 OVC025
     FM261900 24011KT P6SM FEW015 BKN030
     FM262300 25012KT P6SM SCT030=

USA.gov is the U.S. government's official web portal to all federal, state and local government web resources and services.